sensor_id;sensor_type;location;lat;lon;timestamp;pressure;altitude;pressure_sealevel;temperature
74942;BMP280;63506;49.346;8.798;2024-03-23T00:54:30;99375.97;;;7.89
74942;BMP280;63506;49.346;8.798;2024-03-23T00:57:16;99365.06;;;7.82
74942;BMP280;63506;49.346;8.798;2024-03-23T01:00:04;99368.97;;;7.84
74942;BMP280;63506;49.346;8.798;2024-03-23T01:02:46;99357.16;;;7.92
74942;BMP280;63506;49.346;8.798;2024-03-23T01:05:30;99349.81;;;7.89
74942;BMP280;63506;49.346;8.798;2024-03-23T01:08:15;99348.63;;;7.90
74942;BMP280;63506;49.346;8.798;2024-03-23T01:11:01;99333.25;;;7.91
74942;BMP280;63506;49.346;8.798;2024-03-23T01:13:46;99336.31;;;7.89
74942;BMP280;63506;49.346;8.798;2024-03-23T01:16:30;99356.16;;;8.00
74942;BMP280;63506;49.346;8.798;2024-03-23T01:19:16;99336.09;;;7.98
74942;BMP280;63506;49.346;8.798;2024-03-23T01:21:58;99335.63;;;7.96
74942;BMP280;63506;49.346;8.798;2024-03-23T01:24:43;99335.94;;;7.91
74942;BMP280;63506;49.346;8.798;2024-03-23T01:27:27;99325.81;;;7.84
74942;BMP280;63506;49.346;8.798;2024-03-23T01:30:12;99325.34;;;7.79
74942;BMP280;63506;49.346;8.798;2024-03-23T01:33:01;99318.97;;;7.90
74942;BMP280;63506;49.346;8.798;2024-03-23T01:35:49;99321.16;;;7.81
74942;BMP280;63506;49.346;8.798;2024-03-23T01:38:33;99305.75;;;7.82
74942;BMP280;63506;49.346;8.798;2024-03-23T01:41:16;99305.31;;;7.80
74942;BMP280;63506;49.346;8.798;2024-03-23T01:44:06;99297.53;;;7.75
74942;BMP280;63506;49.346;8.798;2024-03-23T01:46:51;99288.81;;;7.81
74942;BMP280;63506;49.346;8.798;2024-03-23T01:49:35;99284.25;;;7.85
74942;BMP280;63506;49.346;8.798;2024-03-23T01:52:22;99283.91;;;7.90
74942;BMP280;63506;49.346;8.798;2024-03-23T01:55:06;99302.63;;;8.02
74942;BMP280;63506;49.346;8.798;2024-03-23T01:57:51;99282.66;;;8.07
74942;BMP280;63506;49.346;8.798;2024-03-23T02:00:37;99277.34;;;8.14
74942;BMP280;63506;49.346;8.798;2024-03-23T02:03:23;99285.00;;;8.09
74942;BMP280;63506;49.346;8.798;2024-03-23T02:06:08;99281.69;;;8.19
74942;BMP280;63506;49.346;8.798;2024-03-23T02:08:53;99261.88;;;8.34
74942;BMP280;63506;49.346;8.798;2024-03-23T02:11:37;99270.25;;;8.29
74942;BMP280;63506;49.346;8.798;2024-03-23T02:14:23;99266.13;;;8.35
74942;BMP280;63506;49.346;8.798;2024-03-23T02:17:09;99259.94;;;8.34
74942;BMP280;63506;49.346;8.798;2024-03-23T02:19:52;99249.19;;;8.38
74942;BMP280;63506;49.346;8.798;2024-03-23T02:22:36;99248.00;;;8.35
74942;BMP280;63506;49.346;8.798;2024-03-23T02:25:21;99238.66;;;8.29
74942;BMP280;63506;49.346;8.798;2024-03-23T02:28:08;99249.56;;;8.37
74942;BMP280;63506;49.346;8.798;2024-03-23T02:30:49;99245.53;;;8.50
74942;BMP280;63506;49.346;8.798;2024-03-23T02:33:31;99246.41;;;8.61
74942;BMP280;63506;49.346;8.798;2024-03-23T02:36:13;99231.66;;;8.51
74942;BMP280;63506;49.346;8.798;2024-03-23T02:38:55;99219.63;;;8.49
74942;BMP280;63506;49.346;8.798;2024-03-23T02:41:43;99224.22;;;8.45
74942;BMP280;63506;49.346;8.798;2024-03-23T02:44:27;99221.88;;;8.43
74942;BMP280;63506;49.346;8.798;2024-03-23T02:47:11;99212.41;;;8.53
74942;BMP280;63506;49.346;8.798;2024-03-23T02:49:55;99216.16;;;8.48
74942;BMP280;63506;49.346;8.798;2024-03-23T02:52:37;99225.91;;;8.53
74942;BMP280;63506;49.346;8.798;2024-03-23T02:55:23;99215.16;;;8.60
74942;BMP280;63506;49.346;8.798;2024-03-23T02:58:07;99211.28;;;8.57
74942;BMP280;63506;49.346;8.798;2024-03-23T03:00:49;99217.88;;;8.60
74942;BMP280;63506;49.346;8.798;2024-03-23T03:03:31;99228.41;;;8.68
74942;BMP280;63506;49.346;8.798;2024-03-23T03:06:23;99225.75;;;8.72
74942;BMP280;63506;49.346;8.798;2024-03-23T03:09:09;99233.44;;;8.74
74942;BMP280;63506;49.346;8.798;2024-03-23T03:11:53;99227.34;;;8.80
74942;BMP280;63506;49.346;8.798;2024-03-23T03:14:37;99226.66;;;8.87
74942;BMP280;63506;49.346;8.798;2024-03-23T03:17:19;99218.97;;;8.89
74942;BMP280;63506;49.346;8.798;2024-03-23T03:20:05;99224.06;;;8.97
74942;BMP280;63506;49.346;8.798;2024-03-23T03:22:50;99225.47;;;9.21
74942;BMP280;63506;49.346;8.798;2024-03-23T03:25:34;99220.69;;;9.99
74942;BMP280;63506;49.346;8.798;2024-03-23T03:28:18;99212.44;;;10.43
74942;BMP280;63506;49.346;8.798;2024-03-23T03:31:04;99210.56;;;10.65
74942;BMP280;63506;49.346;8.798;2024-03-23T03:33:49;99214.06;;;10.87
74942;BMP280;63506;49.346;8.798;2024-03-23T03:36:37;99199.78;;;11.04
74942;BMP280;63506;49.346;8.798;2024-03-23T03:39:22;99197.47;;;11.06
74942;BMP280;63506;49.346;8.798;2024-03-23T03:42:04;99209.50;;;11.12
74942;BMP280;63506;49.346;8.798;2024-03-23T03:44:49;99206.00;;;11.23
74942;BMP280;63506;49.346;8.798;2024-03-23T03:47:38;99207.94;;;11.26
74942;BMP280;63506;49.346;8.798;2024-03-23T03:50:21;99199.06;;;11.29
74942;BMP280;63506;49.346;8.798;2024-03-23T03:53:05;99192.06;;;11.24
74942;BMP280;63506;49.346;8.798;2024-03-23T03:55:49;99185.47;;;11.32
74942;BMP280;63506;49.346;8.798;2024-03-23T03:58:36;99187.03;;;11.33
74942;BMP280;63506;49.346;8.798;2024-03-23T04:01:18;99193.59;;;11.32
74942;BMP280;63506;49.346;8.798;2024-03-23T04:04:02;99183.94;;;11.28
74942;BMP280;63506;49.346;8.798;2024-03-23T04:06:44;99187.41;;;11.35
74942;BMP280;63506;49.346;8.798;2024-03-23T04:09:28;99184.69;;;11.25
74942;BMP280;63506;49.346;8.798;2024-03-23T04:12:13;99180.84;;;11.29
74942;BMP280;63506;49.346;8.798;2024-03-23T04:14:57;99182.00;;;11.39
74942;BMP280;63506;49.346;8.798;2024-03-23T04:17:38;99168.84;;;11.44
74942;BMP280;63506;49.346;8.798;2024-03-23T04:20:22;99165.31;;;11.58
74942;BMP280;63506;49.346;8.798;2024-03-23T04:23:04;99173.06;;;11.63
74942;BMP280;63506;49.346;8.798;2024-03-23T04:25:51;99167.25;;;11.58
74942;BMP280;63506;49.346;8.798;2024-03-23T04:28:38;99165.31;;;11.58
74942;BMP280;63506;49.346;8.798;2024-03-23T04:31:20;99165.69;;;11.64
74942;BMP280;63506;49.346;8.798;2024-03-23T04:34:02;99161.84;;;11.61
74942;BMP280;63506;49.346;8.798;2024-03-23T04:36:46;99165.31;;;11.69
74942;BMP280;63506;49.346;8.798;2024-03-23T04:39:30;99161.44;;;11.66
74942;BMP280;63506;49.346;8.798;2024-03-23T04:42:14;99164.53;;;11.65
74942;BMP280;63506;49.346;8.798;2024-03-23T04:44:56;99169.97;;;11.68
74942;BMP280;63506;49.346;8.798;2024-03-23T04:47:38;99166.09;;;11.66
74942;BMP280;63506;49.346;8.798;2024-03-23T04:50:20;99172.69;;;11.54
74942;BMP280;63506;49.346;8.798;2024-03-23T04:53:07;99176.13;;;11.72
74942;BMP280;63506;49.346;8.798;2024-03-23T04:55:51;99166.09;;;11.59
74942;BMP280;63506;49.346;8.798;2024-03-23T04:58:38;99163.75;;;11.61
74942;BMP280;63506;49.346;8.798;2024-03-23T05:01:20;99173.84;;;11.67
74942;BMP280;63506;49.346;8.798;2024-03-23T05:04:06;99165.66;;;11.71
74942;BMP280;63506;49.346;8.798;2024-03-23T05:06:48;99172.25;;;11.73
74942;BMP280;63506;49.346;8.798;2024-03-23T05:09:37;99176.91;;;11.73
74942;BMP280;63506;49.346;8.798;2024-03-23T05:12:21;99166.88;;;11.63
74942;BMP280;63506;49.346;8.798;2024-03-23T05:15:06;99177.31;;;11.61
74942;BMP280;63506;49.346;8.798;2024-03-23T05:17:53;99194.38;;;11.54
74942;BMP280;63506;49.346;8.798;2024-03-23T05:20:37;99192.44;;;11.47
74942;BMP280;63506;49.346;8.798;2024-03-23T05:23:21;99189.34;;;11.49
74942;BMP280;63506;49.346;8.798;2024-03-23T05:26:08;99192.47;;;11.44
74942;BMP280;63506;49.346;8.798;2024-03-23T05:28:54;99182.00;;;11.39
74942;BMP280;63506;49.346;8.798;2024-03-23T05:31:36;99188.59;;;11.38
74942;BMP280;63506;49.346;8.798;2024-03-23T05:34:20;99192.09;;;11.31
74942;BMP280;63506;49.346;8.798;2024-03-23T05:37:06;99190.16;;;11.32
74942;BMP280;63506;49.346;8.798;2024-03-23T05:39:48;99222.28;;;11.23
74942;BMP280;63506;49.346;8.798;2024-03-23T05:42:36;99215.69;;;11.24
74942;BMP280;63506;49.346;8.798;2024-03-23T05:45:20;99226.53;;;11.17
74942;BMP280;63506;49.346;8.798;2024-03-23T05:48:01;99244.31;;;11.00
74942;BMP280;63506;49.346;8.798;2024-03-23T05:50:48;99238.13;;;11.03
74942;BMP280;63506;49.346;8.798;2024-03-23T05:53:33;99254.38;;;10.96
74942;BMP280;63506;49.346;8.798;2024-03-23T05:56:19;99281.06;;;10.90
74942;BMP280;63506;49.346;8.798;2024-03-23T05:59:04;99289.09;;;10.72
74942;BMP280;63506;49.346;8.798;2024-03-23T06:01:48;99314.06;;;10.37
74942;BMP280;63506;49.346;8.798;2024-03-23T06:04:30;99325.69;;;9.87
74942;BMP280;63506;49.346;8.798;2024-03-23T06:07:11;99339.72;;;9.55
74942;BMP280;63506;49.346;8.798;2024-03-23T06:09:58;99354.06;;;9.26
74942;BMP280;63506;49.346;8.798;2024-03-23T06:12:40;99355.13;;;9.18
74942;BMP280;63506;49.346;8.798;2024-03-23T06:15:24;99365.72;;;9.00
74942;BMP280;63506;49.346;8.798;2024-03-23T06:18:06;99377.25;;;8.97
74942;BMP280;63506;49.346;8.798;2024-03-23T06:20:48;99387.19;;;8.89
74942;BMP280;63506;49.346;8.798;2024-03-23T06:23:32;99389.00;;;8.82
74942;BMP280;63506;49.346;8.798;2024-03-23T06:26:13;99396.50;;;8.92
74942;BMP280;63506;49.346;8.798;2024-03-23T06:28:55;99397.59;;;8.87
74942;BMP280;63506;49.346;8.798;2024-03-23T06:31:42;99401.91;;;8.92
74942;BMP280;63506;49.346;8.798;2024-03-23T06:34:26;99424.91;;;8.82
74942;BMP280;63506;49.346;8.798;2024-03-23T06:37:08;99426.09;;;8.85
74942;BMP280;63506;49.346;8.798;2024-03-23T06:39:52;99419.81;;;8.77
74942;BMP280;63506;49.346;8.798;2024-03-23T06:42:34;99433.06;;;8.86
74942;BMP280;63506;49.346;8.798;2024-03-23T06:45:16;99425.78;;;8.90
74942;BMP280;63506;49.346;8.798;2024-03-23T06:48:04;99432.06;;;8.97
74942;BMP280;63506;49.346;8.798;2024-03-23T06:50:48;99453.72;;;9.01
74942;BMP280;63506;49.346;8.798;2024-03-23T06:53:32;99465.88;;;8.88
74942;BMP280;63506;49.346;8.798;2024-03-23T06:56:13;99468.88;;;8.83
74942;BMP280;63506;49.346;8.798;2024-03-23T06:58:56;99473.88;;;8.81
74942;BMP280;63506;49.346;8.798;2024-03-23T07:01:40;99472.84;;;8.89
74942;BMP280;63506;49.346;8.798;2024-03-23T07:04:26;99491.91;;;8.99
74942;BMP280;63506;49.346;8.798;2024-03-23T07:07:10;99488.72;;;8.94
74942;BMP280;63506;49.346;8.798;2024-03-23T07:09:54;99504.84;;;8.87
74942;BMP280;63506;49.346;8.798;2024-03-23T07:12:36;99509.81;;;8.85
74942;BMP280;63506;49.346;8.798;2024-03-23T07:15:20;99505.69;;;8.91
74942;BMP280;63506;49.346;8.798;2024-03-23T07:18:05;99508.41;;;8.94
74942;BMP280;63506;49.346;8.798;2024-03-23T07:20:56;99517.00;;;9.00
74942;BMP280;63506;49.346;8.798;2024-03-23T07:23:42;99529.91;;;9.14
74942;BMP280;63506;49.346;8.798;2024-03-23T07:26:28;99534.34;;;9.25
74942;BMP280;63506;49.346;8.798;2024-03-23T07:29:10;99531.44;;;9.37
74942;BMP280;63506;49.346;8.798;2024-03-23T07:31:54;99538.25;;;9.54
74942;BMP280;63506;49.346;8.798;2024-03-23T07:34:38;99540.88;;;9.51
74942;BMP280;63506;49.346;8.798;2024-03-23T07:37:24;99544.09;;;9.30
74942;BMP280;63506;49.346;8.798;2024-03-23T07:40:07;99564.31;;;9.17
74942;BMP280;63506;49.346;8.798;2024-03-23T07:42:49;99573.00;;;9.03
74942;BMP280;63506;49.346;8.798;2024-03-23T07:45:30;99577.97;;;9.01
74942;BMP280;63506;49.346;8.798;2024-03-23T07:48:12;99585.38;;;9.04
74942;BMP280;63506;49.346;8.798;2024-03-23T07:51:01;99597.47;;;9.14
74942;BMP280;63506;49.346;8.798;2024-03-23T07:53:47;99612.81;;;9.06
74942;BMP280;63506;49.346;8.798;2024-03-23T07:56:29;99627.63;;;9.16
74942;BMP280;63506;49.346;8.798;2024-03-23T07:59:12;99627.88;;;9.07
74942;BMP280;63506;49.346;8.798;2024-03-23T08:01:57;99627.03;;;9.03
74942;BMP280;63506;49.346;8.798;2024-03-23T08:04:44;99625.31;;;8.91
74942;BMP280;63506;49.346;8.798;2024-03-23T08:07:30;99637.00;;;8.99
74942;BMP280;63506;49.346;8.798;2024-03-23T08:10:16;99652.63;;;9.09
74942;BMP280;63506;49.346;8.798;2024-03-23T08:13:00;99652.50;;;9.02
74942;BMP280;63506;49.346;8.798;2024-03-23T08:15:42;99663.06;;;9.11
74942;BMP280;63506;49.346;8.798;2024-03-23T08:18:25;99670.94;;;9.19
74942;BMP280;63506;49.346;8.798;2024-03-23T08:21:07;99672.34;;;9.13
74942;BMP280;63506;49.346;8.798;2024-03-23T08:23:51;99687.78;;;9.13
74942;BMP280;63506;49.346;8.798;2024-03-23T08:26:37;99686.31;;;9.38
74942;BMP280;63506;49.346;8.798;2024-03-23T08:29:19;99698.50;;;9.78
74942;BMP280;63506;49.346;8.798;2024-03-23T08:32:01;99704.31;;;10.06
74942;BMP280;63506;49.346;8.798;2024-03-23T08:34:47;99700.41;;;10.33
74942;BMP280;63506;49.346;8.798;2024-03-23T08:37:29;99699.28;;;10.34
74942;BMP280;63506;49.346;8.798;2024-03-23T08:40:11;99701.16;;;10.30
74942;BMP280;63506;49.346;8.798;2024-03-23T08:42:55;99706.78;;;10.82
74942;BMP280;63506;49.346;8.798;2024-03-23T08:45:42;99719.19;;;11.78
74942;BMP280;63506;49.346;8.798;2024-03-23T08:48:28;99716.84;;;11.69
74942;BMP280;63506;49.346;8.798;2024-03-23T08:51:11;99718.25;;;12.14
74942;BMP280;63506;49.346;8.798;2024-03-23T08:53:58;99726.66;;;13.42
74942;BMP280;63506;49.346;8.798;2024-03-23T08:56:42;99741.41;;;13.41
74942;BMP280;63506;49.346;8.798;2024-03-23T08:59:29;99733.28;;;13.06
74942;BMP280;63506;49.346;8.798;2024-03-23T09:02:15;99736.09;;;12.15
74942;BMP280;63506;49.346;8.798;2024-03-23T09:04:57;99734.47;;;11.05
74942;BMP280;63506;49.346;8.798;2024-03-23T09:07:41;99741.84;;;11.48
74942;BMP280;63506;49.346;8.798;2024-03-23T09:10:23;99749.13;;;11.92
74942;BMP280;63506;49.346;8.798;2024-03-23T09:13:07;99752.16;;;12.56
74942;BMP280;63506;49.346;8.798;2024-03-23T09:15:54;99757.47;;;12.28
74942;BMP280;63506;49.346;8.798;2024-03-23T09:18:38;99742.59;;;13.12
74942;BMP280;63506;49.346;8.798;2024-03-23T09:21:20;99749.16;;;12.93
74942;BMP280;63506;49.346;8.798;2024-03-23T09:24:03;99752.28;;;12.91
74942;BMP280;63506;49.346;8.798;2024-03-23T09:26:45;99751.50;;;13.16
74942;BMP280;63506;49.346;8.798;2024-03-23T09:29:26;99748.03;;;13.33
74942;BMP280;63506;49.346;8.798;2024-03-23T09:32:13;99746.47;;;13.25
74942;BMP280;63506;49.346;8.798;2024-03-23T09:34:59;99741.03;;;13.57
74942;BMP280;63506;49.346;8.798;2024-03-23T09:37:42;99727.03;;;13.44
74942;BMP280;63506;49.346;8.798;2024-03-23T09:40:25;99730.03;;;14.03
74942;BMP280;63506;49.346;8.798;2024-03-23T09:43:10;99729.50;;;14.36
74942;BMP280;63506;49.346;8.798;2024-03-23T09:45:54;99728.34;;;14.37
74942;BMP280;63506;49.346;8.798;2024-03-23T09:48:43;99734.28;;;14.88
74942;BMP280;63506;49.346;8.798;2024-03-23T09:51:27;99729.34;;;14.68
74942;BMP280;63506;49.346;8.798;2024-03-23T09:54:09;99733.16;;;14.09
74942;BMP280;63506;49.346;8.798;2024-03-23T09:56:51;99741.03;;;13.07
74942;BMP280;63506;49.346;8.798;2024-03-23T09:59:34;99736.16;;;12.26
74942;BMP280;63506;49.346;8.798;2024-03-23T10:02:19;99739.53;;;12.09
74942;BMP280;63506;49.346;8.798;2024-03-23T10:05:04;99738.28;;;11.37
74942;BMP280;63506;49.346;8.798;2024-03-23T10:07:46;99740.78;;;10.75
74942;BMP280;63506;49.346;8.798;2024-03-23T10:10:28;99747.81;;;10.84
74942;BMP280;63506;49.346;8.798;2024-03-23T10:13:24;99744.56;;;10.71
74942;BMP280;63506;49.346;8.798;2024-03-23T10:16:06;99735.84;;;10.85
74942;BMP280;63506;49.346;8.798;2024-03-23T10:18:49;99741.50;;;11.09
74942;BMP280;63506;49.346;8.798;2024-03-23T10:21:34;99747.34;;;11.11
74942;BMP280;63506;49.346;8.798;2024-03-23T10:24:15;99732.28;;;11.18
74942;BMP280;63506;49.346;8.798;2024-03-23T10:27:02;99750.16;;;11.22
74942;BMP280;63506;49.346;8.798;2024-03-23T10:29:49;99753.53;;;11.56
74942;BMP280;63506;49.346;8.798;2024-03-23T10:32:33;99744.72;;;11.66
74942;BMP280;63506;49.346;8.798;2024-03-23T10:35:19;99739.22;;;11.59
74942;BMP280;63506;49.346;8.798;2024-03-23T10:38:06;99738.88;;;11.64
74942;BMP280;63506;49.346;8.798;2024-03-23T10:40:50;99734.66;;;11.67
74942;BMP280;63506;49.346;8.798;2024-03-23T10:43:36;99728.16;;;11.85
74942;BMP280;63506;49.346;8.798;2024-03-23T10:46:17;99729.38;;;11.95
74942;BMP280;63506;49.346;8.798;2024-03-23T10:49:01;99718.69;;;12.20
74942;BMP280;63506;49.346;8.798;2024-03-23T10:51:43;99722.44;;;12.01
74942;BMP280;63506;49.346;8.798;2024-03-23T10:54:32;99717.50;;;12.21
74942;BMP280;63506;49.346;8.798;2024-03-23T10:57:17;99705.94;;;12.42
74942;BMP280;63506;49.346;8.798;2024-03-23T11:00:01;99700.41;;;12.17
74942;BMP280;63506;49.346;8.798;2024-03-23T11:02:43;99702.44;;;12.45
74942;BMP280;63506;49.346;8.798;2024-03-23T11:05:29;99699.78;;;12.63
74942;BMP280;63506;49.346;8.798;2024-03-23T11:08:29;99701.38;;;13.59
74942;BMP280;63506;49.346;8.798;2024-03-23T11:11:17;99706.84;;;13.52
74942;BMP280;63506;49.346;8.798;2024-03-23T11:14:22;99710.34;;;13.28
74942;BMP280;63506;49.346;8.798;2024-03-23T11:17:08;99708.03;;;13.19
74942;BMP280;63506;49.346;8.798;2024-03-23T11:19:53;99699.06;;;13.37
74942;BMP280;63506;49.346;8.798;2024-03-23T11:22:40;99694.78;;;12.86
74942;BMP280;63506;49.346;8.798;2024-03-23T11:25:24;99695.53;;;12.72
74942;BMP280;63506;49.346;8.798;2024-03-23T11:28:12;99687.38;;;12.54
74942;BMP280;63506;49.346;8.798;2024-03-23T11:30:56;99707.41;;;12.29
74942;BMP280;63506;49.346;8.798;2024-03-23T11:33:40;99709.66;;;12.09
74942;BMP280;63506;49.346;8.798;2024-03-23T11:36:24;99705.38;;;12.01
74942;BMP280;63506;49.346;8.798;2024-03-23T11:39:14;99699.56;;;12.02
74942;BMP280;63506;49.346;8.798;2024-03-23T11:41:56;99689.22;;;12.36
74942;BMP280;63506;49.346;8.798;2024-03-23T11:44:41;99672.22;;;12.57
74942;BMP280;63506;49.346;8.798;2024-03-23T11:47:23;99686.47;;;12.18
74942;BMP280;63506;49.346;8.798;2024-03-23T11:50:06;99681.19;;;11.74
74942;BMP280;63506;49.346;8.798;2024-03-23T11:52:50;99670.31;;;11.71
74942;BMP280;63506;49.346;8.798;2024-03-23T11:55:39;99669.16;;;11.72
74942;BMP280;63506;49.346;8.798;2024-03-23T11:58:27;99654.50;;;11.83
74942;BMP280;63506;49.346;8.798;2024-03-23T12:01:14;99658.47;;;12.07
74942;BMP280;63506;49.346;8.798;2024-03-23T12:03:56;99655.03;;;12.21
74942;BMP280;63506;49.346;8.798;2024-03-23T12:06:43;99649.69;;;12.46
74942;BMP280;63506;49.346;8.798;2024-03-23T12:09:27;99652.78;;;12.62
74942;BMP280;63506;49.346;8.798;2024-03-23T12:12:14;99650.41;;;12.25
74942;BMP280;63506;49.346;8.798;2024-03-23T12:15:02;99663.50;;;11.98
74942;BMP280;63506;49.346;8.798;2024-03-23T12:17:50;99704.78;;;11.16
74942;BMP280;63506;49.346;8.798;2024-03-23T12:20:34;99698.97;;;9.83
74942;BMP280;63506;49.346;8.798;2024-03-23T12:23:18;99706.81;;;8.97
74942;BMP280;63506;49.346;8.798;2024-03-23T12:26:02;99717.72;;;8.43
74942;BMP280;63506;49.346;8.798;2024-03-23T12:28:46;99753.53;;;8.24
74942;BMP280;63506;49.346;8.798;2024-03-23T12:31:32;99745.97;;;8.49
74942;BMP280;63506;49.346;8.798;2024-03-23T12:34:17;99747.69;;;8.22
74942;BMP280;63506;49.346;8.798;2024-03-23T12:37:01;99743.91;;;8.07
74942;BMP280;63506;49.346;8.798;2024-03-23T12:39:44;99752.69;;;8.04
74942;BMP280;63506;49.346;8.798;2024-03-23T12:42:26;99728.59;;;7.80
74942;BMP280;63506;49.346;8.798;2024-03-23T12:45:08;99733.69;;;7.65
74942;BMP280;63506;49.346;8.798;2024-03-23T12:47:55;99774.69;;;7.59
74942;BMP280;63506;49.346;8.798;2024-03-23T12:50:41;99764.94;;;7.39
74942;BMP280;63506;49.346;8.798;2024-03-23T12:53:27;99744.69;;;7.29
74942;BMP280;63506;49.346;8.798;2024-03-23T12:56:12;99741.56;;;7.43
74942;BMP280;63506;49.346;8.798;2024-03-23T12:58:56;99734.19;;;7.71
74942;BMP280;63506;49.346;8.798;2024-03-23T13:01:43;99720.31;;;8.04
74942;BMP280;63506;49.346;8.798;2024-03-23T13:04:25;99723.09;;;8.08
74942;BMP280;63506;49.346;8.798;2024-03-23T13:07:09;99722.88;;;8.32
74942;BMP280;63506;49.346;8.798;2024-03-23T13:09:53;99722.72;;;8.63
74942;BMP280;63506;49.346;8.798;2024-03-23T13:12:35;99722.78;;;9.06
74942;BMP280;63506;49.346;8.798;2024-03-23T13:15:19;99725.47;;;9.48
74942;BMP280;63506;49.346;8.798;2024-03-23T13:18:01;99723.03;;;9.65
74942;BMP280;63506;49.346;8.798;2024-03-23T13:20:47;99737.63;;;9.84
74942;BMP280;63506;49.346;8.798;2024-03-23T13:23:34;99766.25;;;9.62
74942;BMP280;63506;49.346;8.798;2024-03-23T13:26:18;99789.75;;;8.96
74942;BMP280;63506;49.346;8.798;2024-03-23T13:28:59;99791.25;;;8.20
74942;BMP280;63506;49.346;8.798;2024-03-23T13:31:43;99782.50;;;8.27
74942;BMP280;63506;49.346;8.798;2024-03-23T13:34:27;99779.44;;;8.63
74942;BMP280;63506;49.346;8.798;2024-03-23T13:37:09;99766.44;;;8.50
74942;BMP280;63506;49.346;8.798;2024-03-23T13:39:53;99776.84;;;8.67
74942;BMP280;63506;49.346;8.798;2024-03-23T13:42:40;99776.13;;;8.51
74942;BMP280;63506;49.346;8.798;2024-03-23T13:45:24;99773.63;;;8.61
74942;BMP280;63506;49.346;8.798;2024-03-23T13:48:10;99757.94;;;8.86
74942;BMP280;63506;49.346;8.798;2024-03-23T13:50:57;99757.09;;;9.01
74942;BMP280;63506;49.346;8.798;2024-03-23T13:53:39;99754.25;;;9.17
74942;BMP280;63506;49.346;8.798;2024-03-23T13:56:23;99746.91;;;9.37
74942;BMP280;63506;49.346;8.798;2024-03-23T13:59:05;99756.38;;;9.27
74942;BMP280;63506;49.346;8.798;2024-03-23T14:01:52;99747.59;;;9.11
74942;BMP280;63506;49.346;8.798;2024-03-23T14:04:34;99738.72;;;9.11
74942;BMP280;63506;49.346;8.798;2024-03-23T14:07:15;99740.22;;;9.31
74942;BMP280;63506;49.346;8.798;2024-03-23T14:10:02;99733.25;;;10.02
74942;BMP280;63506;49.346;8.798;2024-03-23T14:12:49;99716.84;;;10.48
74942;BMP280;63506;49.346;8.798;2024-03-23T14:15:33;99719.59;;;10.88
74942;BMP280;63506;49.346;8.798;2024-03-23T14:18:20;99714.69;;;10.64
74942;BMP280;63506;49.346;8.798;2024-03-23T14:21:02;99726.09;;;10.47
74942;BMP280;63506;49.346;8.798;2024-03-23T14:23:46;99711.91;;;9.97
74942;BMP280;63506;49.346;8.798;2024-03-23T14:26:28;99708.41;;;9.93
74942;BMP280;63506;49.346;8.798;2024-03-23T14:29:12;99716.13;;;9.94
74942;BMP280;63506;49.346;8.798;2024-03-23T14:31:56;99707.72;;;10.03
74942;BMP280;63506;49.346;8.798;2024-03-23T14:34:38;99694.44;;;10.21
74942;BMP280;63506;49.346;8.798;2024-03-23T14:37:20;99687.81;;;10.82
74942;BMP280;63506;49.346;8.798;2024-03-23T14:40:05;99681.28;;;10.53
74942;BMP280;63506;49.346;8.798;2024-03-23T14:42:49;99687.31;;;10.72
74942;BMP280;63506;49.346;8.798;2024-03-23T14:45:35;99683.69;;;10.95
74942;BMP280;63506;49.346;8.798;2024-03-23T14:48:18;99680.09;;;10.87
74942;BMP280;63506;49.346;8.798;2024-03-23T14:51:02;99678.94;;;10.88
74942;BMP280;63506;49.346;8.798;2024-03-23T14:53:46;99665.84;;;10.94
74942;BMP280;63506;49.346;8.798;2024-03-23T14:56:27;99664.16;;;10.75
74942;BMP280;63506;49.346;8.798;2024-03-23T14:59:11;99660.41;;;10.90
74942;BMP280;63506;49.346;8.798;2024-03-23T15:02:00;99645.00;;;10.98
74942;BMP280;63506;49.346;8.798;2024-03-23T15:04:44;99660.16;;;10.65
74942;BMP280;63506;49.346;8.798;2024-03-23T15:07:26;99659.59;;;10.49
74942;BMP280;63506;49.346;8.798;2024-03-23T15:10:08;99666.91;;;10.45
74942;BMP280;63506;49.346;8.798;2024-03-23T15:12:52;99666.09;;;10.41
74942;BMP280;63506;49.346;8.798;2024-03-23T15:15:38;99668.25;;;10.62
74942;BMP280;63506;49.346;8.798;2024-03-23T15:18:25;99658.03;;;10.48
74942;BMP280;63506;49.346;8.798;2024-03-23T15:21:11;99663.09;;;10.50
74942;BMP280;63506;49.346;8.798;2024-03-23T15:23:55;99663.47;;;10.48
74942;BMP280;63506;49.346;8.798;2024-03-23T15:26:39;99661.09;;;10.43
74942;BMP280;63506;49.346;8.798;2024-03-23T15:29:21;99653.81;;;10.51
74942;BMP280;63506;49.346;8.798;2024-03-23T15:32:06;99647.06;;;10.34
74942;BMP280;63506;49.346;8.798;2024-03-23T15:34:50;99652.06;;;10.02
74942;BMP280;63506;49.346;8.798;2024-03-23T15:37:34;99641.50;;;9.63
74942;BMP280;63506;49.346;8.798;2024-03-23T15:40:16;99645.16;;;9.52
74942;BMP280;63506;49.346;8.798;2024-03-23T15:42:57;99638.16;;;9.47
74942;BMP280;63506;49.346;8.798;2024-03-23T15:45:39;99637.13;;;9.55
74942;BMP280;63506;49.346;8.798;2024-03-23T15:48:23;99630.41;;;9.46
74942;BMP280;63506;49.346;8.798;2024-03-23T15:51:10;99619.03;;;9.59
74942;BMP280;63506;49.346;8.798;2024-03-23T15:53:56;99618.47;;;9.47
74942;BMP280;63506;49.346;8.798;2024-03-23T15:56:38;99605.72;;;9.47
74942;BMP280;63506;49.346;8.798;2024-03-23T15:59:22;99610.72;;;9.45
74942;BMP280;63506;49.346;8.798;2024-03-23T16:02:04;99598.91;;;9.30
74942;BMP280;63506;49.346;8.798;2024-03-23T16:04:48;99668.16;;;9.16
74942;BMP280;63506;49.346;8.798;2024-03-23T16:07:34;99718.78;;;8.22
74942;BMP280;63506;49.346;8.798;2024-03-23T16:10:18;99736.22;;;6.34
74942;BMP280;63506;49.346;8.798;2024-03-23T16:13:02;99743.16;;;5.62
74942;BMP280;63506;49.346;8.798;2024-03-23T16:15:46;99726.03;;;5.22
74942;BMP280;63506;49.346;8.798;2024-03-23T16:18:38;99724.94;;;5.23
74942;BMP280;63506;49.346;8.798;2024-03-23T16:21:23;99707.38;;;5.25
74942;BMP280;63506;49.346;8.798;2024-03-23T16:24:09;99700.03;;;5.59
74942;BMP280;63506;49.346;8.798;2024-03-23T16:26:53;99695.16;;;5.97
74942;BMP280;63506;49.346;8.798;2024-03-23T16:29:34;99656.38;;;5.98
74942;BMP280;63506;49.346;8.798;2024-03-23T16:32:16;99649.81;;;6.24
74942;BMP280;63506;49.346;8.798;2024-03-23T16:34:58;99659.34;;;6.33
74942;BMP280;63506;49.346;8.798;2024-03-23T16:37:41;99669.06;;;6.38
74942;BMP280;63506;49.346;8.798;2024-03-23T16:40:26;99685.56;;;6.37
74942;BMP280;63506;49.346;8.798;2024-03-23T16:43:10;99695.59;;;6.12
74942;BMP280;63506;49.346;8.798;2024-03-23T16:45:53;99690.09;;;5.96
74942;BMP280;63506;49.346;8.798;2024-03-23T16:48:40;99692.66;;;6.05